メインページ
METAR-TAF:

METAR-TAF

空港 :

ハノイ, ベトナム

ノイバイ国際空港

緯度: 21-01N, 経度: 105-48E, 海抜: 6m

現時点の気象観測

当レポートは35分前の23:00(UTC)に作成
の風 3kt
気温 26°C
湿度 94%
気圧 1008 hPa
視程: 4600m

METAR: VVNB 232300Z 09003KT 4600 BR NSC 26/25 Q1008 NOSIG

時間: 06:35 (23:35 UTC)

予報

当レポートは6時間35分前の17:00(UTC)に作成
予報は23日の 18時(UTC)から 24日の 18時(UTC)まで有効
の風 5kt
視程: 6000m
高度2000ftの雲はほとんどない
23日の 20時(UTC)から 23日の 21時(UTC)まで徐々に
視程: 3000m
24日の 01時(UTC)から 24日の 02時(UTC)まで徐々に
視程: 7000m
24日の 07時(UTC)から 24日の 12時(UTC)まで一時的に
視程: 4000m
高度1000ftの雲は散在している
高度2000ftの雲はほとんどない, 塔状積雲.

TAF: VVNB 231700Z 2318/2418 09005KT 6000 FEW020 BECMG 2320/2321 3000 BR BECMG 2401/2402 7000 NSW TEMPO 2407/2412 4000 RA SCT010 FEW020TCU

4,000以上の空港の気象観測と天気予報(METAR報とTAF報)

利用可能な観測所は地図上に黄色い丸と赤い丸で示す。

丸の上にカーソルを重ねると観測所名を参照できる。

次にクリックすると気象観測と天気予報を参照できる。

マップの切り替え:黒色「×」印の緑ボタンをクリックして拡大、「-」印の緑ボタンをクリックして縮小、緑色の三角印をクリックして隣りの地図に切り替え


METAR-TAF: